createdAt,value
2023-02-15T00:01:41.372Z,5.57
2023-02-15T00:04:09.498Z,5.58
2023-02-15T00:06:38.616Z,5.56
2023-02-15T00:09:06.417Z,5.52
2023-02-15T00:11:43.723Z,5.48
2023-02-15T00:14:13.452Z,5.45
2023-02-15T00:16:42.108Z,5.43
2023-02-15T00:19:10.663Z,5.42
2023-02-15T00:21:41.020Z,5.39
2023-02-15T00:24:10.332Z,5.39
2023-02-15T00:26:39.776Z,5.38
2023-02-15T00:29:07.922Z,5.36
2023-02-15T00:31:35.932Z,5.36
2023-02-15T00:34:04.693Z,5.33
2023-02-15T00:36:32.440Z,5.35
2023-02-15T00:39:01.567Z,5.33
2023-02-15T00:41:29.212Z,5.26
2023-02-15T00:43:56.863Z,5.25
2023-02-15T00:46:24.461Z,5.22
2023-02-15T00:48:52.192Z,5.19
2023-02-15T00:51:20.019Z,5.18
2023-02-15T00:53:47.829Z,5.15
2023-02-15T00:56:17.145Z,5.15
2023-02-15T00:58:45.103Z,5.13
2023-02-15T01:01:14.946Z,5.12
2023-02-15T01:03:43.560Z,5.10
2023-02-15T01:06:12.092Z,5.07
2023-02-15T01:08:39.843Z,5.05
2023-02-15T01:11:08.708Z,5.04
2023-02-15T01:13:37.893Z,4.98
2023-02-15T01:16:06.324Z,5.01
2023-02-15T01:18:34.981Z,5.01
2023-02-15T01:21:02.746Z,5.01
2023-02-15T01:23:30.439Z,4.97
2023-02-15T01:25:58.103Z,4.97
2023-02-15T01:28:25.785Z,4.97
2023-02-15T01:30:54.962Z,4.95
2023-02-15T01:33:22.783Z,4.94
2023-02-15T01:35:50.504Z,4.93
2023-02-15T01:38:18.214Z,4.91
2023-02-15T01:40:46.009Z,4.89
2023-02-15T01:43:14.360Z,4.85
2023-02-15T01:45:45.261Z,4.82
2023-02-15T01:48:22.260Z,4.80
2023-02-15T01:50:52.898Z,4.77
2023-02-15T01:53:23.815Z,4.75
2023-02-15T01:55:54.485Z,4.72
2023-02-15T01:58:23.283Z,4.70
2023-02-15T02:00:51.037Z,4.67
2023-02-15T02:03:20.818Z,4.67
2023-02-15T02:05:48.511Z,4.65
2023-02-15T02:08:16.222Z,4.65
2023-02-15T02:10:43.863Z,4.64
2023-02-15T02:13:11.484Z,4.61
2023-02-15T02:15:44.014Z,4.57
2023-02-15T02:18:23.598Z,4.59
2023-02-15T02:21:04.962Z,4.56
2023-02-15T02:23:40.215Z,4.55
2023-02-15T02:26:53.673Z,4.52
2023-02-15T02:29:55.720Z,4.49
2023-02-15T02:32:56.076Z,4.47
2023-02-15T02:35:30.954Z,4.48
2023-02-15T02:38:06.085Z,4.47
2023-02-15T02:40:43.838Z,4.47
2023-02-15T02:43:14.960Z,4.45
2023-02-15T02:45:46.430Z,4.45
2023-02-15T02:48:17.553Z,4.45
2023-02-15T02:50:46.630Z,4.42
2023-02-15T02:53:14.292Z,4.40
2023-02-15T02:55:44.290Z,4.38
2023-02-15T02:58:15.523Z,4.37
2023-02-15T03:00:47.156Z,4.36
2023-02-15T03:03:17.283Z,4.33
2023-02-15T03:05:49.812Z,4.32
2023-02-15T03:08:23.128Z,4.30
2023-02-15T03:10:53.347Z,4.29
2023-02-15T03:13:21.100Z,4.28
2023-02-15T03:16:06.580Z,4.27
2023-02-15T03:18:38.942Z,4.29
2023-02-15T03:21:08.756Z,4.25
2023-02-15T03:23:37.961Z,4.22
2023-02-15T03:26:08.200Z,4.25
2023-02-15T03:28:40.294Z,4.23
2023-02-15T03:31:09.065Z,4.21
2023-02-15T03:33:38.273Z,4.20
2023-02-15T03:36:12.184Z,4.19
2023-02-15T03:38:45.390Z,4.14
2023-02-15T03:41:14.459Z,4.15
2023-02-15T03:43:47.719Z,4.15
2023-02-15T03:46:19.835Z,4.14
2023-02-15T03:48:50.204Z,4.12
2023-02-15T03:51:37.335Z,4.09
2023-02-15T03:54:07.642Z,4.08
2023-02-15T03:56:36.111Z,4.08
2023-02-15T03:59:33.059Z,4.09
2023-02-15T04:02:10.448Z,4.08
2023-02-15T04:04:39.285Z,4.10
2023-02-15T04:07:10.294Z,4.09
2023-02-15T04:09:57.891Z,4.09
2023-02-15T04:12:26.036Z,4.08
2023-02-15T04:15:11.650Z,4.09
2023-02-15T04:17:39.690Z,4.05
2023-02-15T04:20:26.197Z,4.05
2023-02-15T04:23:12.812Z,4.06
2023-02-15T04:25:40.865Z,4.05
2023-02-15T04:28:09.135Z,4.05
2023-02-15T04:30:36.905Z,4.07
2023-02-15T04:33:04.798Z,4.09
2023-02-15T04:35:32.730Z,4.09
2023-02-15T04:38:01.850Z,4.10
2023-02-15T04:40:29.696Z,4.11
2023-02-15T04:42:57.391Z,4.09
2023-02-15T04:45:25.079Z,4.10
2023-02-15T04:47:52.922Z,4.11
2023-02-15T04:50:20.657Z,4.12
2023-02-15T04:52:48.445Z,4.10
2023-02-15T04:55:17.681Z,4.09
2023-02-15T04:57:45.363Z,4.10
2023-02-15T05:00:13.745Z,4.09
2023-02-15T05:02:41.478Z,4.06
2023-02-15T05:05:10.429Z,4.01
2023-02-15T05:07:38.098Z,4.05
2023-02-15T05:10:06.531Z,4.04
2023-02-15T05:12:35.570Z,4.02
2023-02-15T05:15:03.251Z,4.02
2023-02-15T05:17:30.968Z,4.00
2023-02-15T05:19:58.738Z,3.99
2023-02-15T05:22:26.448Z,3.97
2023-02-15T05:25:11.754Z,3.96
2023-02-15T05:27:58.482Z,3.96
2023-02-15T05:30:26.704Z,3.94
2023-02-15T05:32:54.544Z,3.92
2023-02-15T05:35:22.243Z,3.92
2023-02-15T05:37:49.982Z,3.90
2023-02-15T05:40:17.909Z,3.91
2023-02-15T05:42:47.011Z,3.89
2023-02-15T05:45:14.661Z,3.89
2023-02-15T05:47:42.354Z,3.88
2023-02-15T05:50:11.119Z,3.87
2023-02-15T05:52:38.860Z,3.87
2023-02-15T05:55:07.979Z,3.86
2023-02-15T05:57:35.698Z,3.87
2023-02-15T06:00:06.007Z,3.87
2023-02-15T06:02:35.626Z,3.87
2023-02-15T06:05:03.353Z,3.87
2023-02-15T06:07:31.119Z,3.89
2023-02-15T06:09:58.749Z,3.89
2023-02-15T06:12:26.686Z,3.90
2023-02-15T06:14:54.371Z,3.90
2023-02-15T06:17:23.619Z,3.92
2023-02-15T06:19:51.301Z,3.93
2023-02-15T06:22:19.013Z,3.92
2023-02-15T06:24:46.631Z,3.93
2023-02-15T06:27:14.301Z,3.94
2023-02-15T06:29:42.087Z,3.93
2023-02-15T06:32:09.854Z,3.93
2023-02-15T06:34:38.946Z,3.93
2023-02-15T06:37:06.601Z,3.91
2023-02-15T06:39:34.430Z,3.90
2023-02-15T06:42:02.150Z,3.89
2023-02-15T06:44:29.824Z,3.89
2023-02-15T06:46:57.493Z,3.88
2023-02-15T06:49:25.191Z,3.90
2023-02-15T06:51:54.285Z,3.90
2023-02-15T06:54:22.011Z,3.92
2023-02-15T06:56:49.680Z,3.90
2023-02-15T06:59:17.515Z,3.91
2023-02-15T07:01:45.285Z,3.90
2023-02-15T07:04:12.975Z,3.93
2023-02-15T07:06:40.640Z,3.93
2023-02-15T07:09:09.748Z,3.94
2023-02-15T07:11:54.705Z,3.95
2023-02-15T07:14:22.498Z,3.96
2023-02-15T07:16:50.211Z,3.96
2023-02-15T07:19:18.586Z,3.98
2023-02-15T07:21:46.559Z,3.99
2023-02-15T07:24:15.981Z,4.00
2023-02-15T07:26:43.666Z,4.02
2023-02-15T07:29:11.296Z,4.03
2023-02-15T07:31:38.920Z,4.06
2023-02-15T07:34:07.941Z,4.09
2023-02-15T07:36:35.644Z,4.11
2023-02-15T07:39:03.327Z,4.13
2023-02-15T07:41:32.347Z,4.14
2023-02-15T07:44:00.015Z,4.18
2023-02-15T07:46:27.646Z,4.19
2023-02-15T07:48:55.331Z,4.23
2023-02-15T07:51:23.011Z,4.25
2023-02-15T07:53:52.490Z,4.29
2023-02-15T07:56:20.185Z,4.32
2023-02-15T07:58:56.719Z,4.36
2023-02-15T08:01:27.243Z,4.38
2023-02-15T08:03:55.485Z,4.44
2023-02-15T08:06:24.183Z,4.50
2023-02-15T08:08:51.931Z,4.53
2023-02-15T08:11:37.505Z,4.56
2023-02-15T08:14:08.493Z,4.59
2023-02-15T08:16:38.785Z,4.64
2023-02-15T08:19:08.839Z,4.69
2023-02-15T08:21:37.927Z,4.76
2023-02-15T08:24:06.785Z,4.78
2023-02-15T08:26:35.103Z,4.81
2023-02-15T08:29:03.383Z,4.82
2023-02-15T08:31:32.614Z,4.89
2023-02-15T08:34:00.567Z,4.92
2023-02-15T08:36:29.629Z,4.97
2023-02-15T08:38:58.962Z,5.00
2023-02-15T08:41:28.541Z,5.08
2023-02-15T08:43:57.840Z,5.15
2023-02-15T08:46:26.869Z,5.21
2023-02-15T08:48:55.879Z,5.24
2023-02-15T08:51:25.683Z,5.26
2023-02-15T08:53:55.095Z,5.32
2023-02-15T08:56:24.242Z,5.40
2023-02-15T08:58:51.975Z,5.44
2023-02-15T09:01:21.197Z,5.49
2023-02-15T09:03:50.234Z,5.54
2023-02-15T09:06:19.507Z,5.57
2023-02-15T09:08:47.470Z,5.63
2023-02-15T09:11:17.662Z,5.64
2023-02-15T09:13:46.105Z,5.70
2023-02-15T09:16:13.818Z,5.75
2023-02-15T09:18:42.071Z,5.75
2023-02-15T09:21:11.988Z,5.78
2023-02-15T09:23:41.348Z,5.88
2023-02-15T09:26:10.984Z,5.96
2023-02-15T09:28:39.018Z,6.04
2023-02-15T09:31:11.801Z,6.08
2023-02-15T09:33:40.234Z,6.16
2023-02-15T09:36:15.608Z,6.24
2023-02-15T09:38:44.893Z,6.31
2023-02-15T09:41:25.106Z,6.39
2023-02-15T09:43:57.971Z,6.47
2023-02-15T09:46:39.253Z,6.57
2023-02-15T09:49:12.623Z,6.67
2023-02-15T09:52:08.413Z,6.74
2023-02-15T09:54:48.294Z,6.80
2023-02-15T09:57:23.344Z,6.85
2023-02-15T09:59:56.942Z,6.92
2023-02-15T10:02:34.124Z,7.01
2023-02-15T10:05:13.474Z,7.10
2023-02-15T10:07:56.091Z,7.19
2023-02-15T10:10:31.604Z,7.24
2023-02-15T10:13:11.848Z,7.38
2023-02-15T10:15:52.478Z,7.48
2023-02-15T10:18:39.337Z,7.52
2023-02-15T10:21:12.481Z,7.65
2023-02-15T10:24:00.367Z,7.72
2023-02-15T10:26:35.216Z,7.82
2023-02-15T10:29:05.539Z,7.86
2023-02-15T10:31:40.235Z,7.94
2023-02-15T10:34:18.236Z,8.01
2023-02-15T10:37:12.252Z,8.06
2023-02-15T10:39:45.202Z,8.11
2023-02-15T10:42:20.387Z,8.20
2023-02-15T10:45:01.109Z,8.35
2023-02-15T10:47:48.243Z,8.50
2023-02-15T10:50:30.322Z,8.63
2023-02-15T10:53:10.191Z,8.79
2023-02-15T10:55:45.383Z,8.87
2023-02-15T10:58:19.401Z,9.00
2023-02-15T11:00:48.893Z,9.08
2023-02-15T11:03:28.135Z,9.18
2023-02-15T11:06:03.869Z,9.32
2023-02-15T11:08:33.751Z,9.42
2023-02-15T11:11:03.884Z,9.48
2023-02-15T11:13:35.808Z,9.58
2023-02-15T11:16:07.518Z,9.67
2023-02-15T11:18:38.530Z,9.70
2023-02-15T11:21:09.370Z,9.80
2023-02-15T11:23:38.398Z,9.88
2023-02-15T11:26:15.550Z,9.98
2023-02-15T11:28:48.999Z,10.05
2023-02-15T11:31:20.350Z,10.16
2023-02-15T11:33:51.175Z,10.23
2023-02-15T11:36:21.837Z,10.29
2023-02-15T11:38:51.611Z,10.36
2023-02-15T11:41:22.198Z,10.49
2023-02-15T11:43:56.179Z,10.63
2023-02-15T11:46:24.036Z,10.71
2023-02-15T11:48:51.837Z,10.84
2023-02-15T11:51:23.836Z,10.88
2023-02-15T11:53:52.518Z,10.95
2023-02-15T11:56:22.998Z,11.01
2023-02-15T11:58:55.060Z,11.07
2023-02-15T12:01:27.005Z,11.16
2023-02-15T12:03:57.402Z,11.22
2023-02-15T12:06:27.364Z,11.28
2023-02-15T12:08:59.911Z,11.35
2023-02-15T12:11:32.538Z,11.38
2023-02-15T12:14:03.315Z,11.44
2023-02-15T12:16:35.753Z,11.43
2023-02-15T12:19:04.352Z,11.43
2023-02-15T12:21:35.448Z,11.47
2023-02-15T12:24:06.082Z,11.53
2023-02-15T12:26:36.297Z,11.62
2023-02-15T12:29:17.592Z,11.66
2023-02-15T12:31:47.302Z,11.65
2023-02-15T12:34:22.142Z,11.65
2023-02-15T12:36:51.729Z,11.77
2023-02-15T12:39:54.214Z,11.76
2023-02-15T12:42:22.692Z,11.75
2023-02-15T12:44:59.005Z,11.75
2023-02-15T12:47:30.698Z,11.74
2023-02-15T12:50:19.444Z,11.75
2023-02-15T12:52:49.608Z,11.69
2023-02-15T12:55:24.672Z,11.65
2023-02-15T12:58:07.482Z,11.59
2023-02-15T13:00:35.702Z,11.58
2023-02-15T13:03:03.825Z,11.58
2023-02-15T13:05:34.951Z,11.61
2023-02-15T13:08:05.177Z,11.65
2023-02-15T13:10:37.690Z,11.67
2023-02-15T13:13:11.755Z,11.70
2023-02-15T13:15:41.332Z,11.72
2023-02-15T13:18:16.478Z,11.78
2023-02-15T13:20:46.127Z,11.87
2023-02-15T13:23:25.073Z,11.91
2023-02-15T13:25:54.317Z,11.94
2023-02-15T13:28:25.494Z,12.01
2023-02-15T13:30:53.327Z,12.08
2023-02-15T13:33:27.569Z,12.12
2023-02-15T13:36:04.805Z,12.16
2023-02-15T13:38:48.739Z,12.15
2023-02-15T13:41:22.010Z,12.15
2023-02-15T13:43:58.594Z,12.18
2023-02-15T13:46:38.019Z,12.16
2023-02-15T13:49:15.215Z,12.21
2023-02-15T13:51:46.236Z,12.23
2023-02-15T13:54:31.162Z,12.28
2023-02-15T13:57:09.509Z,12.28
2023-02-15T13:59:47.615Z,12.28
2023-02-15T14:02:37.297Z,12.23
2023-02-15T14:05:17.983Z,12.20
2023-02-15T14:07:53.820Z,12.20
2023-02-15T14:10:29.008Z,12.13
2023-02-15T14:13:22.095Z,12.12
2023-02-15T14:15:52.946Z,12.09
2023-02-15T14:18:25.210Z,12.07
2023-02-15T14:21:02.390Z,12.04
2023-02-15T14:23:39.708Z,12.00
2023-02-15T14:26:12.405Z,11.94
2023-02-15T14:28:46.014Z,11.97
2023-02-15T14:31:15.697Z,11.95
2023-02-15T14:33:45.454Z,11.97
2023-02-15T14:36:17.081Z,11.94
2023-02-15T14:38:52.288Z,11.95
2023-02-15T14:41:20.957Z,11.90
2023-02-15T14:43:57.637Z,11.92
2023-02-15T14:46:29.975Z,11.92
2023-02-15T14:48:59.167Z,11.91
2023-02-15T14:51:59.842Z,11.91
2023-02-15T14:54:57.502Z,11.90
2023-02-15T14:57:36.364Z,11.87
2023-02-15T15:00:47.080Z,11.80
2023-02-15T15:03:23.595Z,11.82
2023-02-15T15:05:53.897Z,11.79
2023-02-15T15:08:30.231Z,11.75
2023-02-15T15:10:57.913Z,11.76
2023-02-15T15:13:56.359Z,11.74
2023-02-15T15:16:49.537Z,11.72
2023-02-15T15:20:05.915Z,11.67
2023-02-15T15:22:35.410Z,11.62
2023-02-15T15:25:03.525Z,11.59
2023-02-15T15:27:55.004Z,11.55
2023-02-15T15:30:52.017Z,11.55
2023-02-15T15:33:47.054Z,11.48
2023-02-15T15:36:31.463Z,11.46
2023-02-15T15:39:04.776Z,11.44
2023-02-15T15:41:43.010Z,11.42
2023-02-15T15:44:35.131Z,11.39
2023-02-15T15:47:16.882Z,11.37
2023-02-15T15:49:46.074Z,11.34
2023-02-15T15:52:16.314Z,11.31
2023-02-15T15:54:44.533Z,11.28
2023-02-15T15:57:17.675Z,11.25
2023-02-15T15:59:46.960Z,11.24
2023-02-15T16:02:17.911Z,11.23
2023-02-15T16:04:48.554Z,11.19
2023-02-15T16:07:25.434Z,11.14
2023-02-15T16:09:56.979Z,11.11
2023-02-15T16:12:25.487Z,11.08
2023-02-15T16:14:54.519Z,11.03
2023-02-15T16:17:25.343Z,10.99
2023-02-15T16:19:55.433Z,10.96
2023-02-15T16:22:24.921Z,10.96
2023-02-15T16:25:16.039Z,10.91
2023-02-15T16:27:44.590Z,10.89
2023-02-15T16:30:26.772Z,10.86
2023-02-15T16:32:56.835Z,10.75
2023-02-15T16:35:26.062Z,10.76
2023-02-15T16:37:53.738Z,10.76
2023-02-15T16:40:38.040Z,10.73
2023-02-15T16:43:08.577Z,10.69
2023-02-15T16:45:38.080Z,10.68
2023-02-15T16:48:08.543Z,10.62
2023-02-15T16:50:39.616Z,10.61
2023-02-15T16:53:09.055Z,10.48
2023-02-15T16:55:40.643Z,10.53
2023-02-15T16:58:09.242Z,10.49
2023-02-15T17:00:38.807Z,10.50
2023-02-15T17:03:07.924Z,10.47
2023-02-15T17:05:43.445Z,10.46
2023-02-15T17:08:18.092Z,10.41
2023-02-15T17:10:48.555Z,10.40
2023-02-15T17:13:16.983Z,10.37
2023-02-15T17:15:46.143Z,10.35
2023-02-15T17:18:18.708Z,10.31
2023-02-15T17:20:48.779Z,10.29
2023-02-15T17:23:25.176Z,10.26
2023-02-15T17:25:53.769Z,10.23
2023-02-15T17:28:23.000Z,10.20
2023-02-15T17:30:51.994Z,10.17
2023-02-15T17:33:22.961Z,10.14
2023-02-15T17:36:08.232Z,10.12
2023-02-15T17:38:35.936Z,10.08
2023-02-15T17:41:04.088Z,10.04
2023-02-15T17:43:32.074Z,10.01
2023-02-15T17:46:00.158Z,10.01
2023-02-15T17:48:32.980Z,9.98
2023-02-15T17:51:02.405Z,9.95
2023-02-15T17:53:31.889Z,9.93
2023-02-15T17:55:58.724Z,9.91
2023-02-15T17:58:26.467Z,9.88
2023-02-15T18:01:14.730Z,9.85
2023-02-15T18:04:01.591Z,9.82
2023-02-15T18:06:46.858Z,9.80
2023-02-15T18:09:35.681Z,9.78
2023-02-15T18:12:04.312Z,9.74
2023-02-15T18:14:32.395Z,9.71
2023-02-15T18:17:00.129Z,9.69
2023-02-15T18:19:28.345Z,9.71
2023-02-15T18:21:57.789Z,9.70
2023-02-15T18:24:27.674Z,9.68
2023-02-15T18:26:55.883Z,9.68
2023-02-15T18:29:23.652Z,9.66
2023-02-15T18:31:54.554Z,9.64
2023-02-15T18:34:25.247Z,9.63
2023-02-15T18:36:53.539Z,9.61
2023-02-15T18:39:35.048Z,9.61
2023-02-15T18:42:04.038Z,9.61
2023-02-15T18:44:31.858Z,9.60
2023-02-15T18:46:59.564Z,9.59
2023-02-15T18:49:27.237Z,9.57
2023-02-15T18:51:55.124Z,9.55
2023-02-15T18:54:25.012Z,9.55
2023-02-15T18:56:57.056Z,9.53
2023-02-15T18:59:26.421Z,9.47
2023-02-15T19:01:54.635Z,9.46
2023-02-15T19:04:24.859Z,9.42
2023-02-15T19:06:53.514Z,9.41
2023-02-15T19:09:23.141Z,9.41
2023-02-15T19:11:52.388Z,9.39
2023-02-15T19:14:27.355Z,9.35
2023-02-15T19:16:56.331Z,9.35
2023-02-15T19:19:24.171Z,9.34
2023-02-15T19:21:52.374Z,9.31
2023-02-15T19:24:24.675Z,9.29
2023-02-15T19:26:53.052Z,9.26
2023-02-15T19:29:26.202Z,9.25
2023-02-15T19:31:54.116Z,9.24
2023-02-15T19:34:22.032Z,9.21
2023-02-15T19:36:51.632Z,9.18
2023-02-15T19:39:24.834Z,9.18
2023-02-15T19:41:52.923Z,9.13
2023-02-15T19:44:20.914Z,9.11
2023-02-15T19:46:50.070Z,9.09
2023-02-15T19:49:17.816Z,9.08
2023-02-15T19:51:45.594Z,9.08
2023-02-15T19:54:29.405Z,9.07
2023-02-15T19:56:57.414Z,9.04
2023-02-15T19:59:26.409Z,9.04
2023-02-15T20:01:55.970Z,9.00
2023-02-15T20:04:24.261Z,9.00
2023-02-15T20:06:52.832Z,8.98
2023-02-15T20:09:24.063Z,8.98
2023-02-15T20:11:52.411Z,8.95
2023-02-15T20:14:20.723Z,8.94
2023-02-15T20:16:48.637Z,8.90
2023-02-15T20:19:17.778Z,8.88
2023-02-15T20:21:47.040Z,8.86
2023-02-15T20:24:17.098Z,8.86
2023-02-15T20:26:45.226Z,8.84
2023-02-15T20:29:15.146Z,8.83
2023-02-15T20:31:43.485Z,8.81
2023-02-15T20:34:11.887Z,8.79
2023-02-15T20:36:41.405Z,8.79
2023-02-15T20:39:15.437Z,8.75
2023-02-15T20:41:47.727Z,8.76
2023-02-15T20:44:21.289Z,8.74
2023-02-15T20:46:49.901Z,8.71
2023-02-15T20:49:17.634Z,8.71
2023-02-15T20:51:47.511Z,8.71
2023-02-15T20:54:16.802Z,8.68
2023-02-15T20:56:44.658Z,8.67
2023-02-15T20:59:22.353Z,8.66
2023-02-15T21:01:50.393Z,8.63
2023-02-15T21:04:19.816Z,8.60
2023-02-15T21:06:48.954Z,8.58
2023-02-15T21:09:17.280Z,8.58
2023-02-15T21:11:45.556Z,8.57
2023-02-15T21:14:18.352Z,8.56
2023-02-15T21:16:46.156Z,8.55
2023-02-15T21:19:15.277Z,8.54
2023-02-15T21:21:43.201Z,8.52
2023-02-15T21:24:16.134Z,8.53
2023-02-15T21:26:46.238Z,8.53
2023-02-15T21:29:18.637Z,8.53
2023-02-15T21:31:46.564Z,8.51
2023-02-15T21:34:14.428Z,8.48
2023-02-15T21:36:43.064Z,8.49
2023-02-15T21:39:16.946Z,8.47
2023-02-15T21:42:04.426Z,8.46
2023-02-15T21:44:49.741Z,8.45
2023-02-15T21:47:37.515Z,8.44
2023-02-15T21:50:26.318Z,8.45
2023-02-15T21:52:53.126Z,8.43
2023-02-15T21:55:22.229Z,8.43
2023-02-15T21:57:50.045Z,8.41
2023-02-15T22:00:19.204Z,8.42
2023-02-15T22:02:48.498Z,8.40
2023-02-15T22:05:18.398Z,8.40
2023-02-15T22:07:46.681Z,8.38
2023-02-15T22:10:14.985Z,8.38
2023-02-15T22:12:44.665Z,8.37
2023-02-15T22:15:19.742Z,8.34
2023-02-15T22:17:47.632Z,8.35
2023-02-15T22:20:18.838Z,8.35
2023-02-15T22:22:46.830Z,8.38
2023-02-15T22:25:15.528Z,8.37
2023-02-15T22:27:45.736Z,8.33
2023-02-15T22:30:21.458Z,8.32
2023-02-15T22:32:49.191Z,8.28
2023-02-15T22:35:21.567Z,8.30
2023-02-15T22:37:49.160Z,8.31
2023-02-15T22:40:17.040Z,8.28
2023-02-15T22:42:47.584Z,8.23
2023-02-15T22:45:18.692Z,8.21
2023-02-15T22:47:47.355Z,8.21
2023-02-15T22:50:20.218Z,8.20
2023-02-15T22:52:48.753Z,8.22
2023-02-15T22:55:17.082Z,8.21
2023-02-15T22:57:47.769Z,8.17
2023-02-15T23:00:18.746Z,8.18
2023-02-15T23:02:46.682Z,8.13
2023-02-15T23:05:19.149Z,8.08
2023-02-15T23:07:47.651Z,8.10
2023-02-15T23:10:22.125Z,8.07
2023-02-15T23:13:10.686Z,8.02
2023-02-15T23:15:38.853Z,8.00
2023-02-15T23:18:18.081Z,7.97
2023-02-15T23:20:46.684Z,7.98
2023-02-15T23:23:15.346Z,7.98
2023-02-15T23:25:43.273Z,7.94
2023-02-15T23:28:20.765Z,7.94
2023-02-15T23:30:48.869Z,7.92
2023-02-15T23:33:16.697Z,7.95
2023-02-15T23:35:44.381Z,7.94
2023-02-15T23:38:19.982Z,7.93
2023-02-15T23:41:08.337Z,7.88
2023-02-15T23:43:37.682Z,7.93
2023-02-15T23:46:06.571Z,7.92
2023-02-15T23:48:36.991Z,7.88
2023-02-15T23:51:05.575Z,7.86
2023-02-15T23:53:33.965Z,7.86
2023-02-15T23:56:01.842Z,7.88
2023-02-15T23:58:35.979Z,7.83
